CPX447 Details

Departure: Salt Lake City International Airport (KSLC)
Arrival: Minneapolis-St Paul International Airport (KMSP)
Route: RUGGD1 OCS CKW MBW BFF ANW SSWAN TORGY3


Current Weather Information
KSLC 181454Z 13005KT 10SM SCT200 BKN230 03/M02 A3020 RMK AO2 SLP222 T00331017 53008
KMSP 181453Z 25004KT 8SM FEW250 M01/M04 A3036 RMK AO2 SLP292 T10111044 53002